Terminal Aerodrome Forecast
Issued by NWS Sterling, VA

Home | Current Version | Previous Version | Text Only | Print | Product List | Glossary On
Versions: 1 2 3 4 5 6 7 8 9 10 11 12 13 14 15 16
000
FTUS41 KLWX 211100 RRA
TAFCHO
TAF
KCHO 211141Z 2112/2212 00000KT P6SM FEW250
     FM211700 24006KT P6SM FEW200
     FM212000 23010KT P6SM SCT060
     FM212100 23010KT P6SM BKN050
     FM220000 26006KT P6SM BKN060
     FM221000 30008KT P6SM SCT200=

USA.gov is the U.S. government's official web portal to all federal, state and local government web resources and services.